createdAt,value
2023-05-13T00:01:21.012Z,135.98
2023-05-13T00:03:47.737Z,136.13
2023-05-13T00:06:14.653Z,133.02
2023-05-13T00:08:41.243Z,136.52
2023-05-13T00:11:08.338Z,137.40
2023-05-13T00:13:34.955Z,137.55
2023-05-13T00:16:02.836Z,134.32
2023-05-13T00:18:29.867Z,134.63
2023-05-13T00:20:56.560Z,135.75
2023-05-13T00:23:23.266Z,133.65
2023-05-13T00:25:49.885Z,128.60
2023-05-13T00:28:16.976Z,127.85
2023-05-13T00:30:45.486Z,130.70
2023-05-13T00:33:12.197Z,126.13
2023-05-13T00:35:38.885Z,127.05
2023-05-13T00:38:05.478Z,127.53
2023-05-13T00:40:34.572Z,124.88
2023-05-13T00:43:01.260Z,127.03
2023-05-13T00:45:28.022Z,128.85
2023-05-13T00:47:54.820Z,125.47
2023-05-13T00:50:21.754Z,129.45
2023-05-13T00:52:51.057Z,126.53
2023-05-13T00:55:18.115Z,123.13
2023-05-13T00:57:44.645Z,125.53
2023-05-13T01:00:11.768Z,123.38
2023-05-13T01:03:01.068Z,123.22
2023-05-13T01:05:42.423Z,120.95
2023-05-13T01:08:11.908Z,117.93
2023-05-13T01:10:47.629Z,121.22
2023-05-13T01:13:23.712Z,122.00
2023-05-13T01:15:59.872Z,118.85
2023-05-13T01:18:36.918Z,119.68
2023-05-13T01:21:05.330Z,113.60
2023-05-13T01:23:32.112Z,117.03
2023-05-13T01:25:58.692Z,114.28
2023-05-13T01:28:25.545Z,115.78
2023-05-13T01:30:52.499Z,116.65
2023-05-13T01:33:19.296Z,115.15
2023-05-13T01:35:47.445Z,116.20
2023-05-13T01:38:15.140Z,114.53
2023-05-13T01:40:42.687Z,115.88
2023-05-13T01:43:09.307Z,113.65
2023-05-13T01:45:36.140Z,112.60
2023-05-13T01:48:02.871Z,114.30
2023-05-13T01:50:29.740Z,115.30
2023-05-13T01:52:57.392Z,113.18
2023-05-13T01:55:23.957Z,112.53
2023-05-13T01:57:50.593Z,109.22
2023-05-13T02:00:17.549Z,111.68
2023-05-13T02:02:44.640Z,108.25
2023-05-13T02:05:11.332Z,107.13
2023-05-13T02:07:37.945Z,105.30
2023-05-13T02:10:04.911Z,105.50
2023-05-13T02:12:31.444Z,103.38
2023-05-13T02:14:58.175Z,102.30
2023-05-13T02:17:24.817Z,105.90
2023-05-13T02:19:51.548Z,106.25
2023-05-13T02:22:18.126Z,106.47
2023-05-13T02:24:44.741Z,105.13
2023-05-13T02:27:12.938Z,104.88
2023-05-13T02:29:39.720Z,101.57
2023-05-13T02:32:06.610Z,101.78
2023-05-13T02:34:33.253Z,99.70
2023-05-13T02:36:59.806Z,103.65
2023-05-13T02:39:26.879Z,104.63
2023-05-13T02:41:53.482Z,101.50
2023-05-13T02:44:20.095Z,99.43
2023-05-13T02:46:46.639Z,100.90
2023-05-13T02:49:14.091Z,99.57
2023-05-13T02:51:40.869Z,97.45
2023-05-13T02:54:07.465Z,96.35
2023-05-13T02:56:34.114Z,100.43
2023-05-13T02:59:00.960Z,97.78
2023-05-13T03:01:27.696Z,99.20
2023-05-13T03:03:54.361Z,94.95
2023-05-13T03:06:21.030Z,97.35
2023-05-13T03:08:47.704Z,94.55
2023-05-13T03:11:14.268Z,94.43
2023-05-13T03:13:40.944Z,91.78
2023-05-13T03:16:07.645Z,91.85
2023-05-13T03:18:35.382Z,91.50
2023-05-13T03:21:02.082Z,92.25
2023-05-13T03:23:29.951Z,90.82
2023-05-13T03:25:56.623Z,91.55
2023-05-13T03:28:23.167Z,90.03
2023-05-13T03:30:49.928Z,85.85
2023-05-13T03:33:16.572Z,85.35
2023-05-13T03:35:43.120Z,84.75
2023-05-13T03:38:09.683Z,83.53
2023-05-13T03:40:36.262Z,85.90
2023-05-13T03:43:02.889Z,83.70
2023-05-13T03:45:29.476Z,82.40
2023-05-13T03:47:56.814Z,83.15
2023-05-13T03:50:23.687Z,82.90
2023-05-13T03:52:50.736Z,79.22
2023-05-13T03:55:17.301Z,77.75
2023-05-13T03:57:48.342Z,75.97
2023-05-13T04:00:15.691Z,76.57
2023-05-13T04:02:42.518Z,74.75
2023-05-13T04:05:09.653Z,76.90
2023-05-13T04:07:36.386Z,77.13
2023-05-13T04:10:03.058Z,76.10
2023-05-13T04:12:30.919Z,73.22
2023-05-13T04:14:57.540Z,75.03
2023-05-13T04:17:24.259Z,75.25
2023-05-13T04:19:54.790Z,73.95
2023-05-13T04:22:21.977Z,72.80
2023-05-13T04:24:52.044Z,72.18
2023-05-13T04:27:18.743Z,70.95
2023-05-13T04:29:45.444Z,70.97
2023-05-13T04:32:16.062Z,70.82
2023-05-13T04:34:42.828Z,73.72
2023-05-13T04:37:09.508Z,72.40
2023-05-13T04:39:36.220Z,73.65
2023-05-13T04:42:02.800Z,72.28
2023-05-13T04:44:29.405Z,72.28
2023-05-13T04:46:55.993Z,72.35
2023-05-13T04:49:22.560Z,74.32
2023-05-13T04:51:49.370Z,75.97
2023-05-13T04:54:16.253Z,75.47
2023-05-13T04:56:42.859Z,75.15
2023-05-13T04:59:09.850Z,74.75
2023-05-13T05:01:36.494Z,73.28
2023-05-13T05:04:03.127Z,73.68
2023-05-13T05:06:29.694Z,73.93
2023-05-13T05:08:56.643Z,75.68
2023-05-13T05:11:23.206Z,72.20
2023-05-13T05:13:49.768Z,76.90
2023-05-13T05:16:16.352Z,76.85
2023-05-13T05:18:43.626Z,78.20
2023-05-13T05:21:10.668Z,79.85
2023-05-13T05:23:37.267Z,80.65
2023-05-13T05:26:10.972Z,83.28
2023-05-13T05:28:40.113Z,82.40
2023-05-13T05:31:07.226Z,85.75
2023-05-13T05:33:33.825Z,83.82
2023-05-13T05:36:00.391Z,83.00
2023-05-13T05:38:27.225Z,86.30
2023-05-13T05:40:54.013Z,86.20
2023-05-13T05:43:20.684Z,88.13
2023-05-13T05:45:47.315Z,89.35
2023-05-13T05:48:13.948Z,92.95
2023-05-13T05:50:41.640Z,95.10
2023-05-13T05:53:08.174Z,95.68
2023-05-13T05:55:34.889Z,98.78
2023-05-13T05:58:05.471Z,100.38
2023-05-13T06:00:33.367Z,97.60
2023-05-13T06:03:00.213Z,100.78
2023-05-13T06:05:27.032Z,101.63
2023-05-13T06:07:53.609Z,102.10
2023-05-13T06:10:20.599Z,104.63
2023-05-13T06:12:47.276Z,109.28
2023-05-13T06:15:13.876Z,104.28
2023-05-13T06:17:40.547Z,108.75
2023-05-13T06:20:07.523Z,107.50
2023-05-13T06:22:34.447Z,106.05
2023-05-13T06:25:01.090Z,108.78
2023-05-13T06:27:27.673Z,113.30
2023-05-13T06:29:54.302Z,114.32
2023-05-13T06:32:20.943Z,113.72
2023-05-13T06:34:48.396Z,114.57
2023-05-13T06:37:15.461Z,116.40
2023-05-13T06:39:42.037Z,117.97
2023-05-13T06:42:08.611Z,120.47
2023-05-13T06:44:35.320Z,120.68
2023-05-13T06:47:03.067Z,122.80
2023-05-13T06:49:29.691Z,120.28
2023-05-13T06:51:56.693Z,123.15
2023-05-13T06:54:23.305Z,123.00
2023-05-13T06:56:49.951Z,121.32
2023-05-13T06:59:16.570Z,122.50
2023-05-13T07:01:43.311Z,122.43
2023-05-13T07:04:09.941Z,124.60
2023-05-13T07:06:36.772Z,127.05
2023-05-13T07:09:08.015Z,130.18
2023-05-13T07:11:35.912Z,128.70
2023-05-13T07:14:02.513Z,129.73
2023-05-13T07:16:29.326Z,125.53
2023-05-13T07:18:55.900Z,131.63
2023-05-13T07:21:22.536Z,132.10
2023-05-13T07:23:49.241Z,135.52
2023-05-13T07:26:15.882Z,140.25
2023-05-13T07:28:43.455Z,141.07
2023-05-13T07:31:10.434Z,149.93
2023-05-13T07:33:37.189Z,139.20
2023-05-13T07:36:04.035Z,132.18
2023-05-13T07:38:30.625Z,123.85
2023-05-13T07:40:57.199Z,121.38
2023-05-13T07:43:24.094Z,119.68
2023-05-13T07:45:51.389Z,108.18
2023-05-13T07:48:18.661Z,105.43
2023-05-13T07:50:46.115Z,96.65
2023-05-13T07:53:12.942Z,93.05
2023-05-13T07:55:39.583Z,86.63
2023-05-13T07:58:06.698Z,77.57
2023-05-13T08:00:33.399Z,67.90
2023-05-13T08:03:00.104Z,63.70
2023-05-13T08:05:26.843Z,63.67
2023-05-13T08:07:53.438Z,77.70
2023-05-13T08:10:20.088Z,84.90
2023-05-13T08:12:51.173Z,66.90
2023-05-13T08:15:19.078Z,62.45
2023-05-13T08:17:45.752Z,65.90
2023-05-13T08:20:12.525Z,64.03
2023-05-13T08:22:39.128Z,67.32
2023-05-13T08:25:07.139Z,92.25
2023-05-13T08:27:35.028Z,94.30
2023-05-13T08:30:01.617Z,89.20
2023-05-13T08:32:28.218Z,90.55
2023-05-13T08:34:54.857Z,93.97
2023-05-13T08:37:21.759Z,101.28
2023-05-13T08:39:48.311Z,111.93
2023-05-13T08:42:19.359Z,100.85
2023-05-13T08:44:46.903Z,105.47
2023-05-13T08:47:16.044Z,96.85
2023-05-13T08:49:42.896Z,104.55
2023-05-13T08:52:09.481Z,110.75
2023-05-13T08:54:37.993Z,119.40
2023-05-13T08:57:05.077Z,117.03
2023-05-13T08:59:31.665Z,129.45
2023-05-13T09:02:00.291Z,140.38
2023-05-13T09:04:26.952Z,149.48
2023-05-13T09:06:53.888Z,154.88
2023-05-13T09:09:20.953Z,166.55
2023-05-13T09:11:48.675Z,130.93
2023-05-13T09:14:19.533Z,174.80
2023-05-13T09:16:47.925Z,192.18
2023-05-13T09:19:14.726Z,211.30
2023-05-13T09:21:43.746Z,195.48
2023-05-13T09:24:11.670Z,198.95
2023-05-13T09:26:39.101Z,195.35
2023-05-13T09:29:20.674Z,212.73
2023-05-13T09:31:51.222Z,189.60
2023-05-13T09:34:27.915Z,181.85
2023-05-13T09:37:08.354Z,191.35
2023-05-13T09:39:39.867Z,200.70
2023-05-13T09:42:14.659Z,157.98
2023-05-13T09:44:42.233Z,119.85
2023-05-13T09:47:13.898Z,111.38
2023-05-13T09:49:56.898Z,102.07
2023-05-13T09:52:23.508Z,90.30
2023-05-13T09:54:50.114Z,100.43
2023-05-13T09:57:16.755Z,88.13
2023-05-13T09:59:43.390Z,77.35
2023-05-13T10:02:13.031Z,122.00
2023-05-13T10:04:40.162Z,152.13
2023-05-13T10:07:08.620Z,150.10
2023-05-13T10:09:36.786Z,100.35
2023-05-13T10:12:06.752Z,82.38
2023-05-13T10:14:33.469Z,67.43
2023-05-13T10:17:00.417Z,52.00
2023-05-13T10:19:27.219Z,43.08
2023-05-13T10:21:54.459Z,38.15
2023-05-13T10:24:22.229Z,35.45
2023-05-13T10:26:52.727Z,37.50
2023-05-13T10:29:19.477Z,36.28
2023-05-13T10:31:47.878Z,36.70
2023-05-13T10:34:14.681Z,42.40
2023-05-13T10:37:14.004Z,48.55
2023-05-13T10:40:06.629Z,46.35
2023-05-13T10:42:44.919Z,51.33
2023-05-13T10:45:11.541Z,47.83
2023-05-13T10:47:39.165Z,56.10
2023-05-13T10:50:07.713Z,54.55
2023-05-13T10:53:00.485Z,67.65
2023-05-13T10:55:28.013Z,68.15
2023-05-13T10:58:12.594Z,63.20
2023-05-13T11:00:41.484Z,67.60
2023-05-13T11:03:12.234Z,72.07
2023-05-13T11:05:41.397Z,57.45
2023-05-13T11:08:08.078Z,54.95
2023-05-13T11:10:34.932Z,53.20
2023-05-13T11:13:09.575Z,56.03
2023-05-13T11:15:48.985Z,55.17
2023-05-13T11:18:15.707Z,50.95
2023-05-13T11:20:53.482Z,53.15
2023-05-13T11:23:21.147Z,60.38
2023-05-13T11:26:12.450Z,68.43
2023-05-13T11:29:00.366Z,69.65
2023-05-13T11:31:29.094Z,77.97
2023-05-13T11:34:09.617Z,80.45
2023-05-13T11:36:38.500Z,76.85
2023-05-13T11:39:22.538Z,84.97
2023-05-13T11:41:54.773Z,71.72
2023-05-13T11:44:23.017Z,62.67
2023-05-13T11:46:56.669Z,69.20
2023-05-13T11:49:55.977Z,61.90
2023-05-13T11:52:22.683Z,64.30
2023-05-13T11:54:54.608Z,75.00
2023-05-13T11:57:28.632Z,59.03
2023-05-13T11:59:59.910Z,54.95
2023-05-13T12:02:29.384Z,61.60
2023-05-13T12:04:59.909Z,56.65
2023-05-13T12:07:27.437Z,61.33
2023-05-13T12:09:57.601Z,70.53
2023-05-13T12:12:25.278Z,52.78
2023-05-13T12:14:53.000Z,58.97
2023-05-13T12:17:20.876Z,64.38
2023-05-13T12:20:06.797Z,59.97
2023-05-13T12:22:37.748Z,56.38
2023-05-13T12:25:35.795Z,54.20
2023-05-13T12:28:09.274Z,50.72
2023-05-13T12:30:41.000Z,51.78
2023-05-13T12:33:18.922Z,46.53
2023-05-13T12:35:48.429Z,54.00
2023-05-13T12:38:20.011Z,66.22
2023-05-13T12:40:47.997Z,70.18
2023-05-13T12:43:16.646Z,63.58
2023-05-13T12:45:45.977Z,72.18
2023-05-13T12:48:14.468Z,79.72
2023-05-13T12:50:41.098Z,100.25
2023-05-13T12:53:07.947Z,111.57
2023-05-13T12:55:39.926Z,76.95
2023-05-13T12:58:10.980Z,88.28
2023-05-13T13:00:37.977Z,81.07
2023-05-13T13:03:04.788Z,106.25
2023-05-13T13:05:31.944Z,101.38
2023-05-13T13:07:58.645Z,118.68
2023-05-13T13:10:25.227Z,131.50
2023-05-13T13:12:52.277Z,119.15
2023-05-13T13:15:18.990Z,118.22
2023-05-13T13:17:45.693Z,130.20
2023-05-13T13:20:12.557Z,122.82
2023-05-13T13:22:39.265Z,121.45
2023-05-13T13:25:06.864Z,137.90
2023-05-13T13:27:35.037Z,140.50
2023-05-13T13:30:01.885Z,147.57
2023-05-13T13:32:28.469Z,157.13
2023-05-13T13:34:55.178Z,150.30
2023-05-13T13:37:21.947Z,147.75
2023-05-13T13:39:48.501Z,141.27
2023-05-13T13:42:15.086Z,144.32
2023-05-13T13:44:41.625Z,168.50
2023-05-13T13:47:09.689Z,157.82
2023-05-13T13:49:36.443Z,181.85
2023-05-13T13:52:03.045Z,186.80
2023-05-13T13:54:29.691Z,161.68
2023-05-13T13:56:56.377Z,189.38
2023-05-13T13:59:23.186Z,198.23
2023-05-13T14:01:49.831Z,181.05
2023-05-13T14:04:20.299Z,181.25
2023-05-13T14:06:47.174Z,164.02
2023-05-13T14:09:13.866Z,198.45
2023-05-13T14:11:40.514Z,188.05
2023-05-13T14:14:08.369Z,164.10
2023-05-13T14:16:35.876Z,186.02
2023-05-13T14:19:02.651Z,199.95
2023-05-13T14:21:29.288Z,174.10
2023-05-13T14:23:55.924Z,173.63
2023-05-13T14:26:22.510Z,174.27
2023-05-13T14:28:49.082Z,153.98
2023-05-13T14:31:15.859Z,155.15
2023-05-13T14:33:42.443Z,144.32
2023-05-13T14:36:11.137Z,154.82
2023-05-13T14:38:39.838Z,179.23
2023-05-13T14:41:06.435Z,183.95
2023-05-13T14:43:33.051Z,184.70
2023-05-13T14:45:59.696Z,180.05
2023-05-13T14:48:26.787Z,168.85
2023-05-13T14:50:54.114Z,191.85
2023-05-13T14:53:20.922Z,168.98
2023-05-13T14:55:49.417Z,163.82
2023-05-13T14:58:18.022Z,155.63
2023-05-13T15:00:44.762Z,156.32
2023-05-13T15:03:11.853Z,154.55
2023-05-13T15:05:38.822Z,166.82
2023-05-13T15:08:05.466Z,158.95
2023-05-13T15:10:32.059Z,168.32
2023-05-13T15:12:59.026Z,193.57
2023-05-13T15:15:25.701Z,207.70
2023-05-13T15:17:52.904Z,221.73
2023-05-13T15:20:19.672Z,229.27
2023-05-13T15:22:46.347Z,232.70
2023-05-13T15:25:13.119Z,227.32
2023-05-13T15:27:39.709Z,201.90
2023-05-13T15:30:07.156Z,203.00
2023-05-13T15:32:33.792Z,220.65
2023-05-13T15:35:00.396Z,206.57
2023-05-13T15:37:27.058Z,200.55
2023-05-13T15:39:54.256Z,202.45
2023-05-13T15:42:21.375Z,201.55
2023-05-13T15:44:47.947Z,202.82
2023-05-13T15:47:14.582Z,195.40
2023-05-13T15:49:41.372Z,193.10
2023-05-13T15:52:07.920Z,196.05
2023-05-13T15:54:34.721Z,191.20
2023-05-13T15:57:01.337Z,167.95
2023-05-13T15:59:27.893Z,183.98
2023-05-13T16:01:54.556Z,192.55
2023-05-13T16:04:21.305Z,189.48
2023-05-13T16:06:47.901Z,181.75
2023-05-13T16:09:14.590Z,192.02
2023-05-13T16:11:43.371Z,190.38
2023-05-13T16:14:10.018Z,187.10
2023-05-13T16:16:36.592Z,204.63
2023-05-13T16:19:03.944Z,171.25
2023-05-13T16:21:31.708Z,174.10
2023-05-13T16:23:58.419Z,184.43
2023-05-13T16:26:25.040Z,197.45
2023-05-13T16:28:51.894Z,187.57
2023-05-13T16:31:18.651Z,193.70
2023-05-13T16:33:45.272Z,213.40
2023-05-13T16:36:12.004Z,208.75
2023-05-13T16:38:41.378Z,222.27
2023-05-13T16:41:08.658Z,224.73
2023-05-13T16:43:35.279Z,221.98
2023-05-13T16:46:01.982Z,211.43
2023-05-13T16:48:28.719Z,213.65
2023-05-13T16:50:56.270Z,227.82
2023-05-13T16:53:23.252Z,204.73
2023-05-13T16:55:50.207Z,185.40
2023-05-13T16:58:17.370Z,170.27
2023-05-13T17:00:44.537Z,171.15
2023-05-13T17:03:13.341Z,171.43
2023-05-13T17:05:40.448Z,192.00
2023-05-13T17:08:06.989Z,190.50
2023-05-13T17:10:33.718Z,208.48
2023-05-13T17:13:00.309Z,213.93
2023-05-13T17:15:26.956Z,220.95
2023-05-13T17:17:53.623Z,225.05
2023-05-13T17:20:20.494Z,241.52
2023-05-13T17:22:47.609Z,250.88
2023-05-13T17:25:14.876Z,247.25
2023-05-13T17:27:41.542Z,242.27
2023-05-13T17:30:09.052Z,250.02
2023-05-13T17:32:35.914Z,237.07
2023-05-13T17:35:04.078Z,231.13
2023-05-13T17:37:30.678Z,251.68
2023-05-13T17:40:00.742Z,263.17
2023-05-13T17:42:29.025Z,265.20
2023-05-13T17:44:56.056Z,274.92
2023-05-13T17:47:22.770Z,270.10
2023-05-13T17:49:49.619Z,272.45
2023-05-13T17:52:16.187Z,273.65
2023-05-13T17:54:42.752Z,268.45
2023-05-13T17:57:11.027Z,271.33
2023-05-13T17:59:37.773Z,262.77
2023-05-13T18:02:04.525Z,267.42
2023-05-13T18:04:31.255Z,267.00
2023-05-13T18:06:57.856Z,265.48
2023-05-13T18:09:24.520Z,269.67
2023-05-13T18:11:51.137Z,258.80
2023-05-13T18:14:17.791Z,270.52
2023-05-13T18:16:44.465Z,263.42
2023-05-13T18:19:11.090Z,269.85
2023-05-13T18:21:37.804Z,258.17
2023-05-13T18:24:04.704Z,252.85
2023-05-13T18:26:31.272Z,246.43
2023-05-13T18:28:57.808Z,248.70
2023-05-13T18:31:24.442Z,240.25
2023-05-13T18:33:51.108Z,222.27
2023-05-13T18:36:17.756Z,212.10
2023-05-13T18:38:45.920Z,199.82
2023-05-13T18:41:12.618Z,189.63
2023-05-13T18:43:39.189Z,172.70
2023-05-13T18:46:06.191Z,151.27
2023-05-13T18:48:32.771Z,145.32
2023-05-13T18:50:59.437Z,128.60
2023-05-13T18:53:26.046Z,118.65
2023-05-13T18:55:52.928Z,116.20
2023-05-13T18:58:19.565Z,110.10
2023-05-13T19:00:46.296Z,101.05
2023-05-13T19:03:12.976Z,92.93
2023-05-13T19:05:39.648Z,78.25
2023-05-13T19:08:07.994Z,75.55
2023-05-13T19:10:39.364Z,68.75
2023-05-13T19:13:07.189Z,64.78
2023-05-13T19:15:34.208Z,61.15
2023-05-13T19:18:01.128Z,55.13
2023-05-13T19:20:27.961Z,54.22
2023-05-13T19:22:54.505Z,52.03
2023-05-13T19:25:21.110Z,51.92
2023-05-13T19:27:49.374Z,46.95
2023-05-13T19:30:16.138Z,47.50
2023-05-13T19:32:43.686Z,44.15
2023-05-13T19:35:11.163Z,46.00
2023-05-13T19:37:37.806Z,43.28
2023-05-13T19:40:05.033Z,43.70
2023-05-13T19:42:31.702Z,44.53
2023-05-13T19:44:58.255Z,40.13
2023-05-13T19:47:26.923Z,37.70
2023-05-13T19:49:53.618Z,38.53
2023-05-13T19:52:20.260Z,36.80
2023-05-13T19:54:46.823Z,34.00
2023-05-13T19:57:13.455Z,32.40
2023-05-13T19:59:41.680Z,29.73
2023-05-13T20:02:08.827Z,27.67
2023-05-13T20:04:35.676Z,25.88
2023-05-13T20:07:02.284Z,27.65
2023-05-13T20:09:28.865Z,25.08
2023-05-13T20:11:55.526Z,24.75
2023-05-13T20:14:28.747Z,23.23
2023-05-13T20:16:55.398Z,23.67
2023-05-13T20:19:22.161Z,23.88
2023-05-13T20:21:48.835Z,22.23
2023-05-13T20:24:15.781Z,21.90
2023-05-13T20:26:42.327Z,21.90
2023-05-13T20:29:08.856Z,21.75
2023-05-13T20:31:35.496Z,23.58
2023-05-13T20:34:03.412Z,22.65
2023-05-13T20:36:30.122Z,22.20
2023-05-13T20:38:56.670Z,21.80
2023-05-13T20:41:23.851Z,22.98
2023-05-13T20:43:50.584Z,23.95
2023-05-13T20:46:17.527Z,23.88
2023-05-13T20:48:44.198Z,25.15
2023-05-13T20:51:10.765Z,25.52
2023-05-13T20:53:37.728Z,25.08
2023-05-13T20:56:04.926Z,28.00
2023-05-13T20:58:31.531Z,26.98
2023-05-13T21:00:58.174Z,27.90
2023-05-13T21:03:25.132Z,29.65
2023-05-13T21:05:51.819Z,31.80
2023-05-13T21:08:18.468Z,33.33
2023-05-13T21:10:45.063Z,34.17
2023-05-13T21:13:11.832Z,34.08
2023-05-13T21:15:38.673Z,35.15
2023-05-13T21:18:05.459Z,38.67
2023-05-13T21:20:32.784Z,41.58
2023-05-13T21:23:00.984Z,45.25
2023-05-13T21:25:27.718Z,48.92
2023-05-13T21:27:54.404Z,51.75
2023-05-13T21:30:21.095Z,49.22
2023-05-13T21:32:47.860Z,53.88
2023-05-13T21:35:14.472Z,55.72
2023-05-13T21:37:41.087Z,59.42
2023-05-13T21:40:08.705Z,59.25
2023-05-13T21:42:35.761Z,60.60
2023-05-13T21:45:02.920Z,61.15
2023-05-13T21:47:29.653Z,64.40
2023-05-13T21:49:56.440Z,67.45
2023-05-13T21:52:23.036Z,67.57
2023-05-13T21:54:49.704Z,71.57
2023-05-13T21:57:16.676Z,70.13
2023-05-13T21:59:43.272Z,79.75
2023-05-13T22:02:10.213Z,76.10
2023-05-13T22:04:36.954Z,79.65
2023-05-13T22:07:03.658Z,79.38
2023-05-13T22:09:30.250Z,81.90
2023-05-13T22:11:56.824Z,83.97
2023-05-13T22:14:23.396Z,86.53
2023-05-13T22:17:00.924Z,84.60
2023-05-13T22:22:01.743Z,81.78
2023-05-13T22:24:28.295Z,92.10
2023-05-13T22:26:54.889Z,96.93
2023-05-13T22:29:21.560Z,99.03
2023-05-13T22:31:48.164Z,100.40
2023-05-13T22:34:14.888Z,101.55
2023-05-13T22:36:43.810Z,105.32
2023-05-13T22:39:12.229Z,106.97
2023-05-13T22:41:38.968Z,111.35
2023-05-13T22:44:05.774Z,108.43
2023-05-13T22:46:32.479Z,111.03
2023-05-13T22:48:59.163Z,114.97
2023-05-13T22:51:25.751Z,113.18
2023-05-13T22:53:52.334Z,112.50
2023-05-13T22:56:18.955Z,116.03
2023-05-13T22:58:46.132Z,116.95
2023-05-13T23:01:13.004Z,114.55
2023-05-13T23:03:39.637Z,119.03
2023-05-13T23:06:06.362Z,116.05
2023-05-13T23:08:32.953Z,117.85
2023-05-13T23:10:59.600Z,118.82
2023-05-13T23:13:26.295Z,118.38
2023-05-13T23:15:52.843Z,117.75
2023-05-13T23:18:19.630Z,126.15
2023-05-13T23:20:51.180Z,123.30
2023-05-13T23:23:17.808Z,120.90
2023-05-13T23:25:48.248Z,125.95
2023-05-13T23:28:15.190Z,127.40
2023-05-13T23:30:42.043Z,124.43
2023-05-13T23:33:08.980Z,126.32
2023-05-13T23:35:35.785Z,122.88
2023-05-13T23:38:02.589Z,120.88
2023-05-13T23:40:29.182Z,122.68
2023-05-13T23:42:55.755Z,118.93
2023-05-13T23:45:22.423Z,119.53
2023-05-13T23:47:50.358Z,117.47
2023-05-13T23:50:17.061Z,117.45
2023-05-13T23:52:43.775Z,114.32
2023-05-13T23:55:10.483Z,113.10
2023-05-13T23:57:37.035Z,119.93
